<?xml version="1.0" encoding="UTF-8" standalone="no" ?>
<gpx xmlns="http://www.topografix.com/GPX/1/1" xmlns:xsi="http://www.w3.org/2001/XMLSchema-instance" xsi:schemaLocation="http://www.topografix.com/GPX/1/1 http://www.topografix.com/GPX/1/1/gpx.xsd" version="1.1" creator="VisuGPX - https://www.visugpx.com">
  <metadata>
    <name>RSPFY-Clairefontaine</name>
    <desc><![CDATA[marche nordique au départ de la salle des fêtes de Clairefontaine.
Nota: 1 km de route à éviter au km 7,2]]></desc>
  </metadata>
  <trk>
    <name><![CDATA[2022-01-18 08:47]]></name>
    <desc><![CDATA[<p>Heure de départ: 08:47 18 janv. 2022<br/>Heure d'arrivée: 11:23 18 janv. 2022<br/>Distance: 10,7 km (02:36)<br/>Temps déplacement: 02:03<br/>Vitesse moyenne: 4,09 km/h<br/>Vitesse moyenne mouv.: 5,17 km/h<br/>Vitesse Max.: 9,54 km/h<br/>Altitude minimale: 113 m<br/>Altitude maximale: 182 m<br/>Vitesse de montée: 191,3 m/h<br/>Vitesse de descente: -139,3 m/h<br/>Gain d'altitude: 205 m<br/>Perte d'altitude: -206 m<br/>Temps de montée: 01:04<br/>Temps de descente: 01:28<br/></p><hr align="center" width="480" style="height: 2px; width: 517px"/>]]></desc>
    <trkseg>
      <trkpt lat="48.61009" lon="1.9114">
        <ele>125.3</ele>
        <time>2022-01-18T07:47:23Z</time>
      </trkpt>
      <trkpt lat="48.61002" lon="1.91165">
        <ele>125.1</ele>
        <time>2022-01-18T08:05:21Z</time>
      </trkpt>
      <trkpt lat="48.60995" lon="1.91139">
        <ele>124.8</ele>
        <time>2022-01-18T08:05:39Z</time>
      </trkpt>
      <trkpt lat="48.61006" lon="1.91116">
        <ele>125.2</ele>
        <time>2022-01-18T08:05:52Z</time>
      </trkpt>
      <trkpt lat="48.61021" lon="1.91099">
        <ele>125.8</ele>
        <time>2022-01-18T08:06:06Z</time>
      </trkpt>
      <trkpt lat="48.61037" lon="1.91087">
        <ele>126</ele>
        <time>2022-01-18T08:06:19Z</time>
      </trkpt>
      <trkpt lat="48.61054" lon="1.91076">
        <ele>126</ele>
        <time>2022-01-18T08:06:32Z</time>
      </trkpt>
      <trkpt lat="48.61072" lon="1.91069">
        <ele>126.6</ele>
        <time>2022-01-18T08:06:44Z</time>
      </trkpt>
      <trkpt lat="48.6109" lon="1.91059">
        <ele>127.2</ele>
        <time>2022-01-18T08:06:57Z</time>
      </trkpt>
      <trkpt lat="48.61107" lon="1.91049">
        <ele>127.9</ele>
        <time>2022-01-18T08:07:10Z</time>
      </trkpt>
      <trkpt lat="48.61125" lon="1.91043">
        <ele>128.7</ele>
        <time>2022-01-18T08:07:23Z</time>
      </trkpt>
      <trkpt lat="48.61143" lon="1.91036">
        <ele>129.8</ele>
        <time>2022-01-18T08:07:36Z</time>
      </trkpt>
      <trkpt lat="48.61161" lon="1.9103">
        <ele>130.7</ele>
        <time>2022-01-18T08:07:49Z</time>
      </trkpt>
      <trkpt lat="48.61177" lon="1.9102">
        <ele>131.3</ele>
        <time>2022-01-18T08:08:01Z</time>
      </trkpt>
      <trkpt lat="48.61196" lon="1.91011">
        <ele>131.6</ele>
        <time>2022-01-18T08:08:14Z</time>
      </trkpt>
      <trkpt lat="48.61211" lon="1.90995">
        <ele>131.5</ele>
        <time>2022-01-18T08:08:30Z</time>
      </trkpt>
      <trkpt lat="48.61223" lon="1.90972">
        <ele>132</ele>
        <time>2022-01-18T08:08:42Z</time>
      </trkpt>
      <trkpt lat="48.61233" lon="1.90948">
        <ele>132</ele>
        <time>2022-01-18T08:08:55Z</time>
      </trkpt>
      <trkpt lat="48.61244" lon="1.90925">
        <ele>131.3</ele>
        <time>2022-01-18T08:09:09Z</time>
      </trkpt>
      <trkpt lat="48.61253" lon="1.909">
        <ele>130.5</ele>
        <time>2022-01-18T08:09:24Z</time>
      </trkpt>
      <trkpt lat="48.61258" lon="1.90873">
        <ele>129.7</ele>
        <time>2022-01-18T08:09:38Z</time>
      </trkpt>
      <trkpt lat="48.61271" lon="1.90852">
        <ele>129.4</ele>
        <time>2022-01-18T08:09:55Z</time>
      </trkpt>
      <trkpt lat="48.61281" lon="1.90829">
        <ele>129.2</ele>
        <time>2022-01-18T08:10:08Z</time>
      </trkpt>
      <trkpt lat="48.61293" lon="1.90809">
        <ele>129.6</ele>
        <time>2022-01-18T08:10:21Z</time>
      </trkpt>
      <trkpt lat="48.613" lon="1.90783">
        <ele>129</ele>
        <time>2022-01-18T08:10:36Z</time>
      </trkpt>
      <trkpt lat="48.61292" lon="1.90757">
        <ele>128.1</ele>
        <time>2022-01-18T08:10:48Z</time>
      </trkpt>
      <trkpt lat="48.61292" lon="1.90729">
        <ele>128</ele>
        <time>2022-01-18T08:11:02Z</time>
      </trkpt>
      <trkpt lat="48.61308" lon="1.90712">
        <ele>128.1</ele>
        <time>2022-01-18T08:11:14Z</time>
      </trkpt>
      <trkpt lat="48.61324" lon="1.90696">
        <ele>128</ele>
        <time>2022-01-18T08:11:25Z</time>
      </trkpt>
      <trkpt lat="48.61339" lon="1.90681">
        <ele>128</ele>
        <time>2022-01-18T08:11:36Z</time>
      </trkpt>
      <trkpt lat="48.61354" lon="1.90661">
        <ele>128</ele>
        <time>2022-01-18T08:11:47Z</time>
      </trkpt>
      <trkpt lat="48.61368" lon="1.90641">
        <ele>128</ele>
        <time>2022-01-18T08:11:59Z</time>
      </trkpt>
      <trkpt lat="48.61373" lon="1.90614">
        <ele>128</ele>
        <time>2022-01-18T08:12:12Z</time>
      </trkpt>
      <trkpt lat="48.61374" lon="1.90584">
        <ele>128.5</ele>
        <time>2022-01-18T08:12:24Z</time>
      </trkpt>
      <trkpt lat="48.61374" lon="1.90556">
        <ele>129</ele>
        <time>2022-01-18T08:12:36Z</time>
      </trkpt>
      <trkpt lat="48.61369" lon="1.90529">
        <ele>129</ele>
        <time>2022-01-18T08:12:47Z</time>
      </trkpt>
      <trkpt lat="48.61358" lon="1.90507">
        <ele>129</ele>
        <time>2022-01-18T08:12:59Z</time>
      </trkpt>
      <trkpt lat="48.61341" lon="1.90496">
        <ele>129</ele>
        <time>2022-01-18T08:13:12Z</time>
      </trkpt>
      <trkpt lat="48.61323" lon="1.90488">
        <ele>128.6</ele>
        <time>2022-01-18T08:13:23Z</time>
      </trkpt>
      <trkpt lat="48.61305" lon="1.90476">
        <ele>128</ele>
        <time>2022-01-18T08:13:34Z</time>
      </trkpt>
      <trkpt lat="48.61291" lon="1.90459">
        <ele>127.5</ele>
        <time>2022-01-18T08:13:46Z</time>
      </trkpt>
      <trkpt lat="48.61273" lon="1.90448">
        <ele>126.9</ele>
        <time>2022-01-18T08:13:58Z</time>
      </trkpt>
      <trkpt lat="48.61254" lon="1.90445">
        <ele>126.2</ele>
        <time>2022-01-18T08:14:10Z</time>
      </trkpt>
      <trkpt lat="48.61238" lon="1.90431">
        <ele>126</ele>
        <time>2022-01-18T08:14:24Z</time>
      </trkpt>
      <trkpt lat="48.61227" lon="1.90407">
        <ele>126</ele>
        <time>2022-01-18T08:14:39Z</time>
      </trkpt>
      <trkpt lat="48.61224" lon="1.9038">
        <ele>126</ele>
        <time>2022-01-18T08:14:53Z</time>
      </trkpt>
      <trkpt lat="48.61229" lon="1.90352">
        <ele>126</ele>
        <time>2022-01-18T08:15:08Z</time>
      </trkpt>
      <trkpt lat="48.61218" lon="1.90331">
        <ele>126.1</ele>
        <time>2022-01-18T08:15:23Z</time>
      </trkpt>
      <trkpt lat="48.61208" lon="1.90354">
        <ele>126.5</ele>
        <time>2022-01-18T08:15:38Z</time>
      </trkpt>
      <trkpt lat="48.61206" lon="1.90382">
        <ele>126.6</ele>
        <time>2022-01-18T08:15:50Z</time>
      </trkpt>
      <trkpt lat="48.61204" lon="1.90409">
        <ele>126.7</ele>
        <time>2022-01-18T08:16:03Z</time>
      </trkpt>
      <trkpt lat="48.61196" lon="1.90435">
        <ele>126.9</ele>
        <time>2022-01-18T08:16:15Z</time>
      </trkpt>
      <trkpt lat="48.61183" lon="1.90457">
        <ele>126.7</ele>
        <time>2022-01-18T08:16:27Z</time>
      </trkpt>
      <trkpt lat="48.61172" lon="1.9048">
        <ele>126.6</ele>
        <time>2022-01-18T08:16:39Z</time>
      </trkpt>
      <trkpt lat="48.61169" lon="1.90507">
        <ele>126</ele>
        <time>2022-01-18T08:16:51Z</time>
      </trkpt>
      <trkpt lat="48.61179" lon="1.90532">
        <ele>126</ele>
        <time>2022-01-18T08:17:05Z</time>
      </trkpt>
      <trkpt lat="48.6119" lon="1.90555">
        <ele>126</ele>
        <time>2022-01-18T08:17:19Z</time>
      </trkpt>
      <trkpt lat="48.61199" lon="1.90578">
        <ele>126</ele>
        <time>2022-01-18T08:17:32Z</time>
      </trkpt>
      <trkpt lat="48.61212" lon="1.90597">
        <ele>126.3</ele>
        <time>2022-01-18T08:17:43Z</time>
      </trkpt>
      <trkpt lat="48.61225" lon="1.90619">
        <ele>127</ele>
        <time>2022-01-18T08:17:55Z</time>
      </trkpt>
      <trkpt lat="48.61238" lon="1.90641">
        <ele>127</ele>
        <time>2022-01-18T08:18:09Z</time>
      </trkpt>
      <trkpt lat="48.61252" lon="1.90658">
        <ele>127.1</ele>
        <time>2022-01-18T08:18:20Z</time>
      </trkpt>
      <trkpt lat="48.61264" lon="1.90682">
        <ele>127.5</ele>
        <time>2022-01-18T08:18:32Z</time>
      </trkpt>
      <trkpt lat="48.61274" lon="1.90704">
        <ele>127.9</ele>
        <time>2022-01-18T08:18:43Z</time>
      </trkpt>
      <trkpt lat="48.61285" lon="1.90727">
        <ele>128</ele>
        <time>2022-01-18T08:18:57Z</time>
      </trkpt>
      <trkpt lat="48.61296" lon="1.9075">
        <ele>128</ele>
        <time>2022-01-18T08:20:03Z</time>
      </trkpt>
      <trkpt lat="48.61313" lon="1.9076">
        <ele>128.6</ele>
        <time>2022-01-18T08:20:21Z</time>
      </trkpt>
      <trkpt lat="48.6133" lon="1.90748">
        <ele>128.9</ele>
        <time>2022-01-18T08:20:36Z</time>
      </trkpt>
      <trkpt lat="48.61347" lon="1.90738">
        <ele>129.3</ele>
        <time>2022-01-18T08:20:47Z</time>
      </trkpt>
      <trkpt lat="48.61366" lon="1.90732">
        <ele>129.5</ele>
        <time>2022-01-18T08:20:59Z</time>
      </trkpt>
      <trkpt lat="48.61384" lon="1.90727">
        <ele>130</ele>
        <time>2022-01-18T08:21:15Z</time>
      </trkpt>
      <trkpt lat="48.61403" lon="1.90724">
        <ele>130.1</ele>
        <time>2022-01-18T08:21:27Z</time>
      </trkpt>
      <trkpt lat="48.61422" lon="1.9072">
        <ele>129.9</ele>
        <time>2022-01-18T08:21:40Z</time>
      </trkpt>
      <trkpt lat="48.6144" lon="1.90714">
        <ele>129.7</ele>
        <time>2022-01-18T08:21:51Z</time>
      </trkpt>
      <trkpt lat="48.61459" lon="1.90707">
        <ele>129.7</ele>
        <time>2022-01-18T08:22:02Z</time>
      </trkpt>
      <trkpt lat="48.61478" lon="1.90699">
        <ele>130</ele>
        <time>2022-01-18T08:22:14Z</time>
      </trkpt>
      <trkpt lat="48.61496" lon="1.90688">
        <ele>130</ele>
        <time>2022-01-18T08:22:26Z</time>
      </trkpt>
      <trkpt lat="48.61513" lon="1.90674">
        <ele>130.1</ele>
        <time>2022-01-18T08:22:38Z</time>
      </trkpt>
      <trkpt lat="48.61531" lon="1.90663">
        <ele>130.1</ele>
        <time>2022-01-18T08:22:49Z</time>
      </trkpt>
      <trkpt lat="48.61547" lon="1.90651">
        <ele>130.3</ele>
        <time>2022-01-18T08:23:01Z</time>
      </trkpt>
      <trkpt lat="48.61562" lon="1.90635">
        <ele>130.3</ele>
        <time>2022-01-18T08:23:13Z</time>
      </trkpt>
      <trkpt lat="48.61578" lon="1.90623">
        <ele>130.9</ele>
        <time>2022-01-18T08:23:24Z</time>
      </trkpt>
      <trkpt lat="48.61594" lon="1.9061">
        <ele>131</ele>
        <time>2022-01-18T08:23:36Z</time>
      </trkpt>
      <trkpt lat="48.6161" lon="1.90598">
        <ele>131</ele>
        <time>2022-01-18T08:23:48Z</time>
      </trkpt>
      <trkpt lat="48.61627" lon="1.90584">
        <ele>131</ele>
        <time>2022-01-18T08:24:00Z</time>
      </trkpt>
      <trkpt lat="48.61644" lon="1.90575">
        <ele>131.4</ele>
        <time>2022-01-18T08:24:09Z</time>
      </trkpt>
      <trkpt lat="48.61662" lon="1.90566">
        <ele>131.9</ele>
        <time>2022-01-18T08:24:21Z</time>
      </trkpt>
      <trkpt lat="48.6168" lon="1.90556">
        <ele>132</ele>
        <time>2022-01-18T08:24:32Z</time>
      </trkpt>
      <trkpt lat="48.61697" lon="1.90547">
        <ele>132.1</ele>
        <time>2022-01-18T08:24:43Z</time>
      </trkpt>
      <trkpt lat="48.61715" lon="1.90539">
        <ele>132.7</ele>
        <time>2022-01-18T08:24:55Z</time>
      </trkpt>
      <trkpt lat="48.61732" lon="1.90529">
        <ele>133</ele>
        <time>2022-01-18T08:25:05Z</time>
      </trkpt>
      <trkpt lat="48.61751" lon="1.9052">
        <ele>132.7</ele>
        <time>2022-01-18T08:25:18Z</time>
      </trkpt>
      <trkpt lat="48.61768" lon="1.90509">
        <ele>132.3</ele>
        <time>2022-01-18T08:25:32Z</time>
      </trkpt>
      <trkpt lat="48.61785" lon="1.90498">
        <ele>132.3</ele>
        <time>2022-01-18T08:25:45Z</time>
      </trkpt>
      <trkpt lat="48.61803" lon="1.9049">
        <ele>132.6</ele>
        <time>2022-01-18T08:25:58Z</time>
      </trkpt>
      <trkpt lat="48.61822" lon="1.90485">
        <ele>132.8</ele>
        <time>2022-01-18T08:26:09Z</time>
      </trkpt>
      <trkpt lat="48.6184" lon="1.90483">
        <ele>132.8</ele>
        <time>2022-01-18T08:26:18Z</time>
      </trkpt>
      <trkpt lat="48.61859" lon="1.90478">
        <ele>132.3</ele>
        <time>2022-01-18T08:26:27Z</time>
      </trkpt>
      <trkpt lat="48.61877" lon="1.90475">
        <ele>132.1</ele>
        <time>2022-01-18T08:26:34Z</time>
      </trkpt>
      <trkpt lat="48.61896" lon="1.9047">
        <ele>132.2</ele>
        <time>2022-01-18T08:26:43Z</time>
      </trkpt>
      <trkpt lat="48.61915" lon="1.90465">
        <ele>132.7</ele>
        <time>2022-01-18T08:26:53Z</time>
      </trkpt>
      <trkpt lat="48.61933" lon="1.90462">
        <ele>132.6</ele>
        <time>2022-01-18T08:27:02Z</time>
      </trkpt>
      <trkpt lat="48.61951" lon="1.90468">
        <ele>132.9</ele>
        <time>2022-01-18T08:28:03Z</time>
      </trkpt>
      <trkpt lat="48.61966" lon="1.90484">
        <ele>133</ele>
        <time>2022-01-18T08:28:48Z</time>
      </trkpt>
      <trkpt lat="48.61981" lon="1.905">
        <ele>133.3</ele>
        <time>2022-01-18T08:29:03Z</time>
      </trkpt>
      <trkpt lat="48.61999" lon="1.90507">
        <ele>134.2</ele>
        <time>2022-01-18T08:29:17Z</time>
      </trkpt>
      <trkpt lat="48.62017" lon="1.90512">
        <ele>135</ele>
        <time>2022-01-18T08:29:32Z</time>
      </trkpt>
      <trkpt lat="48.62036" lon="1.90516">
        <ele>136</ele>
        <time>2022-01-18T08:29:45Z</time>
      </trkpt>
      <trkpt lat="48.62053" lon="1.90522">
        <ele>136.9</ele>
        <time>2022-01-18T08:29:59Z</time>
      </trkpt>
      <trkpt lat="48.62072" lon="1.90527">
        <ele>137.6</ele>
        <time>2022-01-18T08:30:13Z</time>
      </trkpt>
      <trkpt lat="48.62091" lon="1.9053">
        <ele>138.3</ele>
        <time>2022-01-18T08:30:26Z</time>
      </trkpt>
      <trkpt lat="48.62109" lon="1.90531">
        <ele>139</ele>
        <time>2022-01-18T08:30:38Z</time>
      </trkpt>
      <trkpt lat="48.62128" lon="1.90535">
        <ele>139.9</ele>
        <time>2022-01-18T08:30:52Z</time>
      </trkpt>
      <trkpt lat="48.62146" lon="1.90544">
        <ele>141.1</ele>
        <time>2022-01-18T08:31:05Z</time>
      </trkpt>
      <trkpt lat="48.62164" lon="1.90551">
        <ele>142.7</ele>
        <time>2022-01-18T08:31:19Z</time>
      </trkpt>
      <trkpt lat="48.62182" lon="1.90559">
        <ele>144.7</ele>
        <time>2022-01-18T08:31:32Z</time>
      </trkpt>
      <trkpt lat="48.622" lon="1.90569">
        <ele>146.5</ele>
        <time>2022-01-18T08:31:46Z</time>
      </trkpt>
      <trkpt lat="48.62217" lon="1.90578">
        <ele>148.3</ele>
        <time>2022-01-18T08:32:00Z</time>
      </trkpt>
      <trkpt lat="48.62234" lon="1.90589">
        <ele>150.1</ele>
        <time>2022-01-18T08:32:15Z</time>
      </trkpt>
      <trkpt lat="48.62252" lon="1.90597">
        <ele>151.7</ele>
        <time>2022-01-18T08:32:29Z</time>
      </trkpt>
      <trkpt lat="48.62271" lon="1.90601">
        <ele>153.6</ele>
        <time>2022-01-18T08:32:44Z</time>
      </trkpt>
      <trkpt lat="48.6229" lon="1.90606">
        <ele>155.4</ele>
        <time>2022-01-18T08:32:58Z</time>
      </trkpt>
      <trkpt lat="48.62307" lon="1.90612">
        <ele>157.1</ele>
        <time>2022-01-18T08:33:12Z</time>
      </trkpt>
      <trkpt lat="48.62324" lon="1.90624">
        <ele>158.6</ele>
        <time>2022-01-18T08:33:31Z</time>
      </trkpt>
      <trkpt lat="48.62342" lon="1.90629">
        <ele>160.1</ele>
        <time>2022-01-18T08:33:43Z</time>
      </trkpt>
      <trkpt lat="48.62362" lon="1.90633">
        <ele>161.6</ele>
        <time>2022-01-18T08:33:56Z</time>
      </trkpt>
      <trkpt lat="48.62381" lon="1.90638">
        <ele>164.1</ele>
        <time>2022-01-18T08:34:10Z</time>
      </trkpt>
      <trkpt lat="48.62399" lon="1.90647">
        <ele>165.7</ele>
        <time>2022-01-18T08:34:25Z</time>
      </trkpt>
      <trkpt lat="48.62418" lon="1.90656">
        <ele>166.7</ele>
        <time>2022-01-18T08:34:38Z</time>
      </trkpt>
      <trkpt lat="48.62433" lon="1.90671">
        <ele>167.6</ele>
        <time>2022-01-18T08:34:52Z</time>
      </trkpt>
      <trkpt lat="48.62449" lon="1.90682">
        <ele>168.2</ele>
        <time>2022-01-18T08:35:06Z</time>
      </trkpt>
      <trkpt lat="48.62468" lon="1.9069">
        <ele>168.8</ele>
        <time>2022-01-18T08:35:19Z</time>
      </trkpt>
      <trkpt lat="48.62486" lon="1.90696">
        <ele>169</ele>
        <time>2022-01-18T08:35:33Z</time>
      </trkpt>
      <trkpt lat="48.62504" lon="1.90702">
        <ele>169.4</ele>
        <time>2022-01-18T08:35:45Z</time>
      </trkpt>
      <trkpt lat="48.62521" lon="1.90707">
        <ele>169.9</ele>
        <time>2022-01-18T08:35:58Z</time>
      </trkpt>
      <trkpt lat="48.62539" lon="1.90714">
        <ele>170</ele>
        <time>2022-01-18T08:36:13Z</time>
      </trkpt>
      <trkpt lat="48.62557" lon="1.90723">
        <ele>170</ele>
        <time>2022-01-18T08:38:14Z</time>
      </trkpt>
      <trkpt lat="48.62576" lon="1.90723">
        <ele>170</ele>
        <time>2022-01-18T08:38:30Z</time>
      </trkpt>
      <trkpt lat="48.62595" lon="1.90724">
        <ele>170.4</ele>
        <time>2022-01-18T08:38:45Z</time>
      </trkpt>
      <trkpt lat="48.62614" lon="1.90723">
        <ele>171</ele>
        <time>2022-01-18T08:39:01Z</time>
      </trkpt>
      <trkpt lat="48.62632" lon="1.9072">
        <ele>171</ele>
        <time>2022-01-18T08:39:15Z</time>
      </trkpt>
      <trkpt lat="48.62651" lon="1.90719">
        <ele>171</ele>
        <time>2022-01-18T08:39:28Z</time>
      </trkpt>
      <trkpt lat="48.62669" lon="1.90722">
        <ele>171</ele>
        <time>2022-01-18T08:39:41Z</time>
      </trkpt>
      <trkpt lat="48.62688" lon="1.90722">
        <ele>171</ele>
        <time>2022-01-18T08:39:53Z</time>
      </trkpt>
      <trkpt lat="48.62707" lon="1.90716">
        <ele>171</ele>
        <time>2022-01-18T08:40:06Z</time>
      </trkpt>
      <trkpt lat="48.62724" lon="1.90709">
        <ele>171</ele>
        <time>2022-01-18T08:40:20Z</time>
      </trkpt>
      <trkpt lat="48.62742" lon="1.90707">
        <ele>171</ele>
        <time>2022-01-18T08:40:32Z</time>
      </trkpt>
      <trkpt lat="48.62761" lon="1.90705">
        <ele>171</ele>
        <time>2022-01-18T08:40:46Z</time>
      </trkpt>
      <trkpt lat="48.62778" lon="1.90701">
        <ele>171</ele>
        <time>2022-01-18T08:40:59Z</time>
      </trkpt>
      <trkpt lat="48.62798" lon="1.90698">
        <ele>171</ele>
        <time>2022-01-18T08:41:12Z</time>
      </trkpt>
      <trkpt lat="48.62816" lon="1.90693">
        <ele>171</ele>
        <time>2022-01-18T08:41:27Z</time>
      </trkpt>
      <trkpt lat="48.62834" lon="1.90688">
        <ele>171</ele>
        <time>2022-01-18T08:41:41Z</time>
      </trkpt>
      <trkpt lat="48.62852" lon="1.90684">
        <ele>171</ele>
        <time>2022-01-18T08:41:57Z</time>
      </trkpt>
      <trkpt lat="48.6287" lon="1.90689">
        <ele>171</ele>
        <time>2022-01-18T08:42:16Z</time>
      </trkpt>
      <trkpt lat="48.62888" lon="1.9069">
        <ele>171</ele>
        <time>2022-01-18T08:42:28Z</time>
      </trkpt>
      <trkpt lat="48.62907" lon="1.90685">
        <ele>171</ele>
        <time>2022-01-18T08:42:41Z</time>
      </trkpt>
      <trkpt lat="48.62924" lon="1.90679">
        <ele>171.3</ele>
        <time>2022-01-18T08:42:52Z</time>
      </trkpt>
      <trkpt lat="48.62943" lon="1.90672">
        <ele>171.9</ele>
        <time>2022-01-18T08:43:05Z</time>
      </trkpt>
      <trkpt lat="48.62959" lon="1.90662">
        <ele>172</ele>
        <time>2022-01-18T08:43:18Z</time>
      </trkpt>
      <trkpt lat="48.62977" lon="1.90652">
        <ele>172</ele>
        <time>2022-01-18T08:43:30Z</time>
      </trkpt>
      <trkpt lat="48.62995" lon="1.90642">
        <ele>172</ele>
        <time>2022-01-18T08:43:44Z</time>
      </trkpt>
      <trkpt lat="48.63012" lon="1.9063">
        <ele>172</ele>
        <time>2022-01-18T08:43:59Z</time>
      </trkpt>
      <trkpt lat="48.63029" lon="1.90617">
        <ele>172</ele>
        <time>2022-01-18T08:44:13Z</time>
      </trkpt>
      <trkpt lat="48.63046" lon="1.90606">
        <ele>172</ele>
        <time>2022-01-18T08:44:27Z</time>
      </trkpt>
      <trkpt lat="48.63064" lon="1.90597">
        <ele>172</ele>
        <time>2022-01-18T08:44:38Z</time>
      </trkpt>
      <trkpt lat="48.63082" lon="1.90591">
        <ele>172</ele>
        <time>2022-01-18T08:44:54Z</time>
      </trkpt>
      <trkpt lat="48.63101" lon="1.90586">
        <ele>172.6</ele>
        <time>2022-01-18T08:45:15Z</time>
      </trkpt>
      <trkpt lat="48.63118" lon="1.90578">
        <ele>173</ele>
        <time>2022-01-18T08:45:27Z</time>
      </trkpt>
      <trkpt lat="48.63136" lon="1.90569">
        <ele>173</ele>
        <time>2022-01-18T08:45:42Z</time>
      </trkpt>
      <trkpt lat="48.63154" lon="1.90565">
        <ele>173</ele>
        <time>2022-01-18T08:45:57Z</time>
      </trkpt>
      <trkpt lat="48.63174" lon="1.90561">
        <ele>173</ele>
        <time>2022-01-18T08:46:16Z</time>
      </trkpt>
      <trkpt lat="48.63191" lon="1.90556">
        <ele>173</ele>
        <time>2022-01-18T08:46:27Z</time>
      </trkpt>
      <trkpt lat="48.63209" lon="1.90545">
        <ele>173.5</ele>
        <time>2022-01-18T08:46:39Z</time>
      </trkpt>
      <trkpt lat="48.63225" lon="1.90533">
        <ele>174</ele>
        <time>2022-01-18T08:46:52Z</time>
      </trkpt>
      <trkpt lat="48.63239" lon="1.90515">
        <ele>174</ele>
        <time>2022-01-18T08:47:06Z</time>
      </trkpt>
      <trkpt lat="48.63253" lon="1.90498">
        <ele>174</ele>
        <time>2022-01-18T08:47:19Z</time>
      </trkpt>
      <trkpt lat="48.63267" lon="1.9048">
        <ele>174</ele>
        <time>2022-01-18T08:47:31Z</time>
      </trkpt>
      <trkpt lat="48.63282" lon="1.90462">
        <ele>173.9</ele>
        <time>2022-01-18T08:47:43Z</time>
      </trkpt>
      <trkpt lat="48.63298" lon="1.90447">
        <ele>173.3</ele>
        <time>2022-01-18T08:47:58Z</time>
      </trkpt>
      <trkpt lat="48.63316" lon="1.90438">
        <ele>173</ele>
        <time>2022-01-18T08:48:13Z</time>
      </trkpt>
      <trkpt lat="48.63333" lon="1.90423">
        <ele>173</ele>
        <time>2022-01-18T08:48:29Z</time>
      </trkpt>
      <trkpt lat="48.63351" lon="1.90417">
        <ele>173</ele>
        <time>2022-01-18T08:48:45Z</time>
      </trkpt>
      <trkpt lat="48.63369" lon="1.90406">
        <ele>173</ele>
        <time>2022-01-18T08:48:59Z</time>
      </trkpt>
      <trkpt lat="48.63382" lon="1.90387">
        <ele>173</ele>
        <time>2022-01-18T08:49:44Z</time>
      </trkpt>
      <trkpt lat="48.63397" lon="1.90371">
        <ele>173</ele>
        <time>2022-01-18T08:50:02Z</time>
      </trkpt>
      <trkpt lat="48.63412" lon="1.90352">
        <ele>173</ele>
        <time>2022-01-18T08:50:18Z</time>
      </trkpt>
      <trkpt lat="48.63427" lon="1.90334">
        <ele>173</ele>
        <time>2022-01-18T08:50:31Z</time>
      </trkpt>
      <trkpt lat="48.63439" lon="1.90312">
        <ele>173</ele>
        <time>2022-01-18T08:50:46Z</time>
      </trkpt>
      <trkpt lat="48.63451" lon="1.9029">
        <ele>173</ele>
        <time>2022-01-18T08:51:00Z</time>
      </trkpt>
      <trkpt lat="48.63466" lon="1.90272">
        <ele>172.9</ele>
        <time>2022-01-18T08:51:13Z</time>
      </trkpt>
      <trkpt lat="48.63477" lon="1.90248">
        <ele>172</ele>
        <time>2022-01-18T08:51:25Z</time>
      </trkpt>
      <trkpt lat="48.63485" lon="1.90223">
        <ele>172</ele>
        <time>2022-01-18T08:51:36Z</time>
      </trkpt>
      <trkpt lat="48.63502" lon="1.90215">
        <ele>172</ele>
        <time>2022-01-18T08:51:56Z</time>
      </trkpt>
      <trkpt lat="48.63518" lon="1.90228">
        <ele>172</ele>
        <time>2022-01-18T08:52:12Z</time>
      </trkpt>
      <trkpt lat="48.63533" lon="1.90246">
        <ele>172</ele>
        <time>2022-01-18T08:52:28Z</time>
      </trkpt>
      <trkpt lat="48.63549" lon="1.9026">
        <ele>172</ele>
        <time>2022-01-18T08:52:45Z</time>
      </trkpt>
      <trkpt lat="48.63564" lon="1.90275">
        <ele>172</ele>
        <time>2022-01-18T08:52:58Z</time>
      </trkpt>
      <trkpt lat="48.63578" lon="1.90294">
        <ele>172</ele>
        <time>2022-01-18T08:53:16Z</time>
      </trkpt>
      <trkpt lat="48.63593" lon="1.90312">
        <ele>172.1</ele>
        <time>2022-01-18T08:53:31Z</time>
      </trkpt>
      <trkpt lat="48.63609" lon="1.90327">
        <ele>172.1</ele>
        <time>2022-01-18T08:53:45Z</time>
      </trkpt>
      <trkpt lat="48.63624" lon="1.90343">
        <ele>172</ele>
        <time>2022-01-18T08:54:00Z</time>
      </trkpt>
      <trkpt lat="48.63638" lon="1.90362">
        <ele>172</ele>
        <time>2022-01-18T08:54:13Z</time>
      </trkpt>
      <trkpt lat="48.63655" lon="1.90376">
        <ele>172</ele>
        <time>2022-01-18T08:54:25Z</time>
      </trkpt>
      <trkpt lat="48.63668" lon="1.90396">
        <ele>172</ele>
        <time>2022-01-18T08:54:38Z</time>
      </trkpt>
      <trkpt lat="48.63683" lon="1.90414">
        <ele>172</ele>
        <time>2022-01-18T08:54:55Z</time>
      </trkpt>
      <trkpt lat="48.63698" lon="1.90431">
        <ele>172</ele>
        <time>2022-01-18T08:55:11Z</time>
      </trkpt>
      <trkpt lat="48.63714" lon="1.90447">
        <ele>172</ele>
        <time>2022-01-18T08:55:25Z</time>
      </trkpt>
      <trkpt lat="48.63731" lon="1.90459">
        <ele>172</ele>
        <time>2022-01-18T08:55:38Z</time>
      </trkpt>
      <trkpt lat="48.63744" lon="1.90478">
        <ele>172</ele>
        <time>2022-01-18T08:55:53Z</time>
      </trkpt>
      <trkpt lat="48.63757" lon="1.90498">
        <ele>171.8</ele>
        <time>2022-01-18T08:56:08Z</time>
      </trkpt>
      <trkpt lat="48.63773" lon="1.90512">
        <ele>171.5</ele>
        <time>2022-01-18T08:56:27Z</time>
      </trkpt>
      <trkpt lat="48.63787" lon="1.90529">
        <ele>171.7</ele>
        <time>2022-01-18T08:56:51Z</time>
      </trkpt>
      <trkpt lat="48.63805" lon="1.90533">
        <ele>171</ele>
        <time>2022-01-18T08:57:11Z</time>
      </trkpt>
      <trkpt lat="48.63791" lon="1.9055">
        <ele>171.5</ele>
        <time>2022-01-18T08:59:08Z</time>
      </trkpt>
      <trkpt lat="48.63781" lon="1.90573">
        <ele>171.9</ele>
        <time>2022-01-18T08:59:29Z</time>
      </trkpt>
      <trkpt lat="48.63768" lon="1.90595">
        <ele>172</ele>
        <time>2022-01-18T08:59:46Z</time>
      </trkpt>
      <trkpt lat="48.63759" lon="1.90618">
        <ele>172</ele>
        <time>2022-01-18T09:00:00Z</time>
      </trkpt>
      <trkpt lat="48.63748" lon="1.9064">
        <ele>172</ele>
        <time>2022-01-18T09:00:12Z</time>
      </trkpt>
      <trkpt lat="48.63736" lon="1.90662">
        <ele>172</ele>
        <time>2022-01-18T09:00:24Z</time>
      </trkpt>
      <trkpt lat="48.63725" lon="1.90685">
        <ele>171.4</ele>
        <time>2022-01-18T09:00:38Z</time>
      </trkpt>
      <trkpt lat="48.63715" lon="1.90708">
        <ele>171</ele>
        <time>2022-01-18T09:00:49Z</time>
      </trkpt>
      <trkpt lat="48.63704" lon="1.90732">
        <ele>171</ele>
        <time>2022-01-18T09:01:02Z</time>
      </trkpt>
      <trkpt lat="48.63692" lon="1.90754">
        <ele>171</ele>
        <time>2022-01-18T09:01:17Z</time>
      </trkpt>
      <trkpt lat="48.63682" lon="1.90777">
        <ele>171</ele>
        <time>2022-01-18T09:01:30Z</time>
      </trkpt>
      <trkpt lat="48.63669" lon="1.90799">
        <ele>171</ele>
        <time>2022-01-18T09:01:45Z</time>
      </trkpt>
      <trkpt lat="48.63658" lon="1.90822">
        <ele>171</ele>
        <time>2022-01-18T09:01:58Z</time>
      </trkpt>
      <trkpt lat="48.63649" lon="1.90846">
        <ele>171</ele>
        <time>2022-01-18T09:02:09Z</time>
      </trkpt>
      <trkpt lat="48.63637" lon="1.90868">
        <ele>171</ele>
        <time>2022-01-18T09:02:21Z</time>
      </trkpt>
      <trkpt lat="48.63627" lon="1.90893">
        <ele>171</ele>
        <time>2022-01-18T09:02:34Z</time>
      </trkpt>
      <trkpt lat="48.63619" lon="1.90918">
        <ele>171</ele>
        <time>2022-01-18T09:02:51Z</time>
      </trkpt>
      <trkpt lat="48.63608" lon="1.90941">
        <ele>171</ele>
        <time>2022-01-18T09:03:07Z</time>
      </trkpt>
      <trkpt lat="48.63596" lon="1.90965">
        <ele>171</ele>
        <time>2022-01-18T09:03:21Z</time>
      </trkpt>
      <trkpt lat="48.63587" lon="1.90988">
        <ele>171</ele>
        <time>2022-01-18T09:03:35Z</time>
      </trkpt>
      <trkpt lat="48.63574" lon="1.91009">
        <ele>171</ele>
        <time>2022-01-18T09:03:48Z</time>
      </trkpt>
      <trkpt lat="48.63562" lon="1.9103">
        <ele>171</ele>
        <time>2022-01-18T09:04:04Z</time>
      </trkpt>
      <trkpt lat="48.6355" lon="1.91054">
        <ele>171</ele>
        <time>2022-01-18T09:04:20Z</time>
      </trkpt>
      <trkpt lat="48.63543" lon="1.91081">
        <ele>171</ele>
        <time>2022-01-18T09:04:31Z</time>
      </trkpt>
      <trkpt lat="48.63531" lon="1.91101">
        <ele>171</ele>
        <time>2022-01-18T09:04:41Z</time>
      </trkpt>
      <trkpt lat="48.6352" lon="1.91124">
        <ele>171</ele>
        <time>2022-01-18T09:04:55Z</time>
      </trkpt>
      <trkpt lat="48.63509" lon="1.91148">
        <ele>171</ele>
        <time>2022-01-18T09:05:11Z</time>
      </trkpt>
      <trkpt lat="48.63499" lon="1.9117">
        <ele>171</ele>
        <time>2022-01-18T09:05:23Z</time>
      </trkpt>
      <trkpt lat="48.63486" lon="1.91193">
        <ele>171</ele>
        <time>2022-01-18T09:05:35Z</time>
      </trkpt>
      <trkpt lat="48.63475" lon="1.91216">
        <ele>171</ele>
        <time>2022-01-18T09:05:47Z</time>
      </trkpt>
      <trkpt lat="48.63463" lon="1.91238">
        <ele>170.9</ele>
        <time>2022-01-18T09:06:02Z</time>
      </trkpt>
      <trkpt lat="48.63451" lon="1.9126">
        <ele>171</ele>
        <time>2022-01-18T09:06:14Z</time>
      </trkpt>
      <trkpt lat="48.63439" lon="1.9128">
        <ele>171</ele>
        <time>2022-01-18T09:06:26Z</time>
      </trkpt>
      <trkpt lat="48.63428" lon="1.91303">
        <ele>171</ele>
        <time>2022-01-18T09:06:39Z</time>
      </trkpt>
      <trkpt lat="48.63419" lon="1.91328">
        <ele>171</ele>
        <time>2022-01-18T09:06:50Z</time>
      </trkpt>
      <trkpt lat="48.6341" lon="1.91352">
        <ele>171</ele>
        <time>2022-01-18T09:07:00Z</time>
      </trkpt>
      <trkpt lat="48.634" lon="1.91376">
        <ele>171</ele>
        <time>2022-01-18T09:07:11Z</time>
      </trkpt>
      <trkpt lat="48.6339" lon="1.914">
        <ele>171</ele>
        <time>2022-01-18T09:07:22Z</time>
      </trkpt>
      <trkpt lat="48.6338" lon="1.91426">
        <ele>171</ele>
        <time>2022-01-18T09:07:36Z</time>
      </trkpt>
      <trkpt lat="48.63371" lon="1.9145">
        <ele>171</ele>
        <time>2022-01-18T09:07:49Z</time>
      </trkpt>
      <trkpt lat="48.63358" lon="1.9147">
        <ele>171</ele>
        <time>2022-01-18T09:08:03Z</time>
      </trkpt>
      <trkpt lat="48.63346" lon="1.91491">
        <ele>171</ele>
        <time>2022-01-18T09:08:20Z</time>
      </trkpt>
      <trkpt lat="48.63336" lon="1.91515">
        <ele>171</ele>
        <time>2022-01-18T09:08:32Z</time>
      </trkpt>
      <trkpt lat="48.63325" lon="1.9154">
        <ele>171</ele>
        <time>2022-01-18T09:08:44Z</time>
      </trkpt>
      <trkpt lat="48.63314" lon="1.91564">
        <ele>170.8</ele>
        <time>2022-01-18T09:08:57Z</time>
      </trkpt>
      <trkpt lat="48.63303" lon="1.91585">
        <ele>169.9</ele>
        <time>2022-01-18T09:09:10Z</time>
      </trkpt>
      <trkpt lat="48.63292" lon="1.91608">
        <ele>169.5</ele>
        <time>2022-01-18T09:09:23Z</time>
      </trkpt>
      <trkpt lat="48.6328" lon="1.91629">
        <ele>169.1</ele>
        <time>2022-01-18T09:09:36Z</time>
      </trkpt>
      <trkpt lat="48.63272" lon="1.91654">
        <ele>167.9</ele>
        <time>2022-01-18T09:09:49Z</time>
      </trkpt>
      <trkpt lat="48.63259" lon="1.91677">
        <ele>166.4</ele>
        <time>2022-01-18T09:10:01Z</time>
      </trkpt>
      <trkpt lat="48.6325" lon="1.917">
        <ele>164.9</ele>
        <time>2022-01-18T09:10:13Z</time>
      </trkpt>
      <trkpt lat="48.63238" lon="1.91723">
        <ele>162.8</ele>
        <time>2022-01-18T09:10:28Z</time>
      </trkpt>
      <trkpt lat="48.63225" lon="1.91743">
        <ele>160.4</ele>
        <time>2022-01-18T09:10:41Z</time>
      </trkpt>
      <trkpt lat="48.63214" lon="1.91765">
        <ele>159.4</ele>
        <time>2022-01-18T09:10:56Z</time>
      </trkpt>
      <trkpt lat="48.63204" lon="1.91788">
        <ele>158.7</ele>
        <time>2022-01-18T09:11:10Z</time>
      </trkpt>
      <trkpt lat="48.63191" lon="1.91809">
        <ele>158</ele>
        <time>2022-01-18T09:11:32Z</time>
      </trkpt>
      <trkpt lat="48.6318" lon="1.91831">
        <ele>158.1</ele>
        <time>2022-01-18T09:14:14Z</time>
      </trkpt>
      <trkpt lat="48.63177" lon="1.91858">
        <ele>158.8</ele>
        <time>2022-01-18T09:16:39Z</time>
      </trkpt>
      <trkpt lat="48.63168" lon="1.91882">
        <ele>159.9</ele>
        <time>2022-01-18T09:17:01Z</time>
      </trkpt>
      <trkpt lat="48.63157" lon="1.91904">
        <ele>161.2</ele>
        <time>2022-01-18T09:17:34Z</time>
      </trkpt>
      <trkpt lat="48.63146" lon="1.91925">
        <ele>162.8</ele>
        <time>2022-01-18T09:17:49Z</time>
      </trkpt>
      <trkpt lat="48.63136" lon="1.91949">
        <ele>164.7</ele>
        <time>2022-01-18T09:18:06Z</time>
      </trkpt>
      <trkpt lat="48.63127" lon="1.91973">
        <ele>166.7</ele>
        <time>2022-01-18T09:18:21Z</time>
      </trkpt>
      <trkpt lat="48.63118" lon="1.91999">
        <ele>168.9</ele>
        <time>2022-01-18T09:18:38Z</time>
      </trkpt>
      <trkpt lat="48.63105" lon="1.92018">
        <ele>169.6</ele>
        <time>2022-01-18T09:18:53Z</time>
      </trkpt>
      <trkpt lat="48.63095" lon="1.92041">
        <ele>169.4</ele>
        <time>2022-01-18T09:19:07Z</time>
      </trkpt>
      <trkpt lat="48.63084" lon="1.92063">
        <ele>170</ele>
        <time>2022-01-18T09:21:07Z</time>
      </trkpt>
      <trkpt lat="48.63073" lon="1.92086">
        <ele>170</ele>
        <time>2022-01-18T09:21:24Z</time>
      </trkpt>
      <trkpt lat="48.63061" lon="1.92108">
        <ele>170</ele>
        <time>2022-01-18T09:21:41Z</time>
      </trkpt>
      <trkpt lat="48.6305" lon="1.92131">
        <ele>170.1</ele>
        <time>2022-01-18T09:21:55Z</time>
      </trkpt>
      <trkpt lat="48.6304" lon="1.92154">
        <ele>170</ele>
        <time>2022-01-18T09:22:09Z</time>
      </trkpt>
      <trkpt lat="48.6303" lon="1.92179">
        <ele>170.4</ele>
        <time>2022-01-18T09:22:23Z</time>
      </trkpt>
      <trkpt lat="48.6302" lon="1.92203">
        <ele>171</ele>
        <time>2022-01-18T09:22:35Z</time>
      </trkpt>
      <trkpt lat="48.63009" lon="1.92226">
        <ele>170.9</ele>
        <time>2022-01-18T09:22:48Z</time>
      </trkpt>
      <trkpt lat="48.62997" lon="1.92249">
        <ele>170</ele>
        <time>2022-01-18T09:23:01Z</time>
      </trkpt>
      <trkpt lat="48.62987" lon="1.92273">
        <ele>170</ele>
        <time>2022-01-18T09:23:13Z</time>
      </trkpt>
      <trkpt lat="48.62977" lon="1.92295">
        <ele>169.9</ele>
        <time>2022-01-18T09:23:24Z</time>
      </trkpt>
      <trkpt lat="48.62966" lon="1.92317">
        <ele>169.7</ele>
        <time>2022-01-18T09:23:38Z</time>
      </trkpt>
      <trkpt lat="48.62955" lon="1.9234">
        <ele>169.5</ele>
        <time>2022-01-18T09:23:53Z</time>
      </trkpt>
      <trkpt lat="48.62943" lon="1.92361">
        <ele>170</ele>
        <time>2022-01-18T09:24:09Z</time>
      </trkpt>
      <trkpt lat="48.62934" lon="1.92386">
        <ele>170.4</ele>
        <time>2022-01-18T09:24:24Z</time>
      </trkpt>
      <trkpt lat="48.62923" lon="1.9241">
        <ele>170.8</ele>
        <time>2022-01-18T09:24:37Z</time>
      </trkpt>
      <trkpt lat="48.62913" lon="1.92434">
        <ele>171</ele>
        <time>2022-01-18T09:24:51Z</time>
      </trkpt>
      <trkpt lat="48.62901" lon="1.92454">
        <ele>170.7</ele>
        <time>2022-01-18T09:25:05Z</time>
      </trkpt>
      <trkpt lat="48.62893" lon="1.92429">
        <ele>171</ele>
        <time>2022-01-18T09:25:57Z</time>
      </trkpt>
      <trkpt lat="48.62885" lon="1.92404">
        <ele>171</ele>
        <time>2022-01-18T09:26:12Z</time>
      </trkpt>
      <trkpt lat="48.62874" lon="1.9238">
        <ele>171</ele>
        <time>2022-01-18T09:26:26Z</time>
      </trkpt>
      <trkpt lat="48.62864" lon="1.92356">
        <ele>171</ele>
        <time>2022-01-18T09:26:43Z</time>
      </trkpt>
      <trkpt lat="48.62849" lon="1.92338">
        <ele>171</ele>
        <time>2022-01-18T09:27:00Z</time>
      </trkpt>
      <trkpt lat="48.62837" lon="1.92317">
        <ele>171</ele>
        <time>2022-01-18T09:27:14Z</time>
      </trkpt>
      <trkpt lat="48.62823" lon="1.92299">
        <ele>171</ele>
        <time>2022-01-18T09:27:27Z</time>
      </trkpt>
      <trkpt lat="48.62809" lon="1.9228">
        <ele>171</ele>
        <time>2022-01-18T09:27:41Z</time>
      </trkpt>
      <trkpt lat="48.62801" lon="1.92254">
        <ele>171</ele>
        <time>2022-01-18T09:27:57Z</time>
      </trkpt>
      <trkpt lat="48.62799" lon="1.92225">
        <ele>171</ele>
        <time>2022-01-18T09:28:13Z</time>
      </trkpt>
      <trkpt lat="48.62798" lon="1.92198">
        <ele>171</ele>
        <time>2022-01-18T09:28:24Z</time>
      </trkpt>
      <trkpt lat="48.62798" lon="1.9217">
        <ele>171</ele>
        <time>2022-01-18T09:28:36Z</time>
      </trkpt>
      <trkpt lat="48.62797" lon="1.9214">
        <ele>171</ele>
        <time>2022-01-18T09:28:48Z</time>
      </trkpt>
      <trkpt lat="48.62792" lon="1.92113">
        <ele>171</ele>
        <time>2022-01-18T09:29:00Z</time>
      </trkpt>
      <trkpt lat="48.62785" lon="1.92087">
        <ele>171</ele>
        <time>2022-01-18T09:29:15Z</time>
      </trkpt>
      <trkpt lat="48.62782" lon="1.92059">
        <ele>171</ele>
        <time>2022-01-18T09:29:29Z</time>
      </trkpt>
      <trkpt lat="48.62776" lon="1.92033">
        <ele>171</ele>
        <time>2022-01-18T09:29:41Z</time>
      </trkpt>
      <trkpt lat="48.62774" lon="1.92005">
        <ele>171</ele>
        <time>2022-01-18T09:29:53Z</time>
      </trkpt>
      <trkpt lat="48.62766" lon="1.91979">
        <ele>171</ele>
        <time>2022-01-18T09:30:11Z</time>
      </trkpt>
      <trkpt lat="48.62767" lon="1.91951">
        <ele>171</ele>
        <time>2022-01-18T09:30:29Z</time>
      </trkpt>
      <trkpt lat="48.62761" lon="1.91922">
        <ele>171</ele>
        <time>2022-01-18T09:30:48Z</time>
      </trkpt>
      <trkpt lat="48.6276" lon="1.91894">
        <ele>171.5</ele>
        <time>2022-01-18T09:31:03Z</time>
      </trkpt>
      <trkpt lat="48.62757" lon="1.91866">
        <ele>171.8</ele>
        <time>2022-01-18T09:31:21Z</time>
      </trkpt>
      <trkpt lat="48.62754" lon="1.91839">
        <ele>172</ele>
        <time>2022-01-18T09:31:35Z</time>
      </trkpt>
      <trkpt lat="48.62753" lon="1.91809">
        <ele>172</ele>
        <time>2022-01-18T09:31:50Z</time>
      </trkpt>
      <trkpt lat="48.62748" lon="1.91781">
        <ele>172</ele>
        <time>2022-01-18T09:32:03Z</time>
      </trkpt>
      <trkpt lat="48.62733" lon="1.91795">
        <ele>172</ele>
        <time>2022-01-18T09:34:03Z</time>
      </trkpt>
      <trkpt lat="48.62722" lon="1.91817">
        <ele>172</ele>
        <time>2022-01-18T09:34:18Z</time>
      </trkpt>
      <trkpt lat="48.6271" lon="1.91839">
        <ele>172</ele>
        <time>2022-01-18T09:34:32Z</time>
      </trkpt>
      <trkpt lat="48.627" lon="1.91863">
        <ele>172</ele>
        <time>2022-01-18T09:34:47Z</time>
      </trkpt>
      <trkpt lat="48.6269" lon="1.91886">
        <ele>172</ele>
        <time>2022-01-18T09:35:03Z</time>
      </trkpt>
      <trkpt lat="48.62678" lon="1.91907">
        <ele>172</ele>
        <time>2022-01-18T09:35:17Z</time>
      </trkpt>
      <trkpt lat="48.62666" lon="1.91928">
        <ele>172</ele>
        <time>2022-01-18T09:35:31Z</time>
      </trkpt>
      <trkpt lat="48.62656" lon="1.91952">
        <ele>172</ele>
        <time>2022-01-18T09:35:44Z</time>
      </trkpt>
      <trkpt lat="48.62645" lon="1.91976">
        <ele>171.9</ele>
        <time>2022-01-18T09:35:56Z</time>
      </trkpt>
      <trkpt lat="48.62635" lon="1.91999">
        <ele>171</ele>
        <time>2022-01-18T09:36:08Z</time>
      </trkpt>
      <trkpt lat="48.62624" lon="1.92022">
        <ele>171</ele>
        <time>2022-01-18T09:36:21Z</time>
      </trkpt>
      <trkpt lat="48.62611" lon="1.92043">
        <ele>171</ele>
        <time>2022-01-18T09:36:35Z</time>
      </trkpt>
      <trkpt lat="48.62601" lon="1.92067">
        <ele>171</ele>
        <time>2022-01-18T09:36:47Z</time>
      </trkpt>
      <trkpt lat="48.62591" lon="1.92092">
        <ele>171</ele>
        <time>2022-01-18T09:36:59Z</time>
      </trkpt>
      <trkpt lat="48.62582" lon="1.92115">
        <ele>171</ele>
        <time>2022-01-18T09:37:11Z</time>
      </trkpt>
      <trkpt lat="48.62571" lon="1.92139">
        <ele>171</ele>
        <time>2022-01-18T09:37:25Z</time>
      </trkpt>
      <trkpt lat="48.62559" lon="1.92161">
        <ele>171</ele>
        <time>2022-01-18T09:37:38Z</time>
      </trkpt>
      <trkpt lat="48.62545" lon="1.9218">
        <ele>171</ele>
        <time>2022-01-18T09:37:52Z</time>
      </trkpt>
      <trkpt lat="48.62535" lon="1.92203">
        <ele>171</ele>
        <time>2022-01-18T09:38:06Z</time>
      </trkpt>
      <trkpt lat="48.62522" lon="1.92224">
        <ele>171</ele>
        <time>2022-01-18T09:38:20Z</time>
      </trkpt>
      <trkpt lat="48.62513" lon="1.92248">
        <ele>171</ele>
        <time>2022-01-18T09:38:32Z</time>
      </trkpt>
      <trkpt lat="48.62503" lon="1.92273">
        <ele>171</ele>
        <time>2022-01-18T09:38:44Z</time>
      </trkpt>
      <trkpt lat="48.62492" lon="1.92298">
        <ele>171</ele>
        <time>2022-01-18T09:38:57Z</time>
      </trkpt>
      <trkpt lat="48.62479" lon="1.92317">
        <ele>171</ele>
        <time>2022-01-18T09:39:12Z</time>
      </trkpt>
      <trkpt lat="48.62463" lon="1.92332">
        <ele>171</ele>
        <time>2022-01-18T09:39:25Z</time>
      </trkpt>
      <trkpt lat="48.62452" lon="1.92355">
        <ele>171</ele>
        <time>2022-01-18T09:39:40Z</time>
      </trkpt>
      <trkpt lat="48.62447" lon="1.92383">
        <ele>171</ele>
        <time>2022-01-18T09:39:56Z</time>
      </trkpt>
      <trkpt lat="48.62441" lon="1.9241">
        <ele>171</ele>
        <time>2022-01-18T09:40:10Z</time>
      </trkpt>
      <trkpt lat="48.62423" lon="1.92405">
        <ele>171</ele>
        <time>2022-01-18T09:40:26Z</time>
      </trkpt>
      <trkpt lat="48.62407" lon="1.9239">
        <ele>171</ele>
        <time>2022-01-18T09:40:39Z</time>
      </trkpt>
      <trkpt lat="48.62392" lon="1.92373">
        <ele>171</ele>
        <time>2022-01-18T09:40:52Z</time>
      </trkpt>
      <trkpt lat="48.62377" lon="1.92357">
        <ele>171</ele>
        <time>2022-01-18T09:41:05Z</time>
      </trkpt>
      <trkpt lat="48.62363" lon="1.92338">
        <ele>171</ele>
        <time>2022-01-18T09:41:19Z</time>
      </trkpt>
      <trkpt lat="48.62348" lon="1.92321">
        <ele>171</ele>
        <time>2022-01-18T09:41:32Z</time>
      </trkpt>
      <trkpt lat="48.62334" lon="1.92304">
        <ele>171</ele>
        <time>2022-01-18T09:41:45Z</time>
      </trkpt>
      <trkpt lat="48.62317" lon="1.9229">
        <ele>171</ele>
        <time>2022-01-18T09:41:58Z</time>
      </trkpt>
      <trkpt lat="48.623" lon="1.92275">
        <ele>171</ele>
        <time>2022-01-18T09:42:11Z</time>
      </trkpt>
      <trkpt lat="48.62285" lon="1.92258">
        <ele>171</ele>
        <time>2022-01-18T09:42:27Z</time>
      </trkpt>
      <trkpt lat="48.6227" lon="1.92242">
        <ele>171</ele>
        <time>2022-01-18T09:42:42Z</time>
      </trkpt>
      <trkpt lat="48.62255" lon="1.92227">
        <ele>171</ele>
        <time>2022-01-18T09:42:54Z</time>
      </trkpt>
      <trkpt lat="48.6224" lon="1.9221">
        <ele>171</ele>
        <time>2022-01-18T09:43:08Z</time>
      </trkpt>
      <trkpt lat="48.62225" lon="1.92192">
        <ele>171</ele>
        <time>2022-01-18T09:43:21Z</time>
      </trkpt>
      <trkpt lat="48.6221" lon="1.92174">
        <ele>171</ele>
        <time>2022-01-18T09:43:33Z</time>
      </trkpt>
      <trkpt lat="48.62195" lon="1.92157">
        <ele>171</ele>
        <time>2022-01-18T09:43:45Z</time>
      </trkpt>
      <trkpt lat="48.6218" lon="1.9214">
        <ele>171</ele>
        <time>2022-01-18T09:43:59Z</time>
      </trkpt>
      <trkpt lat="48.62164" lon="1.92124">
        <ele>171</ele>
        <time>2022-01-18T09:44:12Z</time>
      </trkpt>
      <trkpt lat="48.62149" lon="1.92109">
        <ele>171</ele>
        <time>2022-01-18T09:44:25Z</time>
      </trkpt>
      <trkpt lat="48.62134" lon="1.92093">
        <ele>171.2</ele>
        <time>2022-01-18T09:44:38Z</time>
      </trkpt>
      <trkpt lat="48.62121" lon="1.92072">
        <ele>171.8</ele>
        <time>2022-01-18T09:44:53Z</time>
      </trkpt>
      <trkpt lat="48.62107" lon="1.92053">
        <ele>172</ele>
        <time>2022-01-18T09:45:07Z</time>
      </trkpt>
      <trkpt lat="48.62092" lon="1.92036">
        <ele>172</ele>
        <time>2022-01-18T09:45:20Z</time>
      </trkpt>
      <trkpt lat="48.62076" lon="1.9202">
        <ele>172</ele>
        <time>2022-01-18T09:45:33Z</time>
      </trkpt>
      <trkpt lat="48.6206" lon="1.92006">
        <ele>172</ele>
        <time>2022-01-18T09:45:46Z</time>
      </trkpt>
      <trkpt lat="48.62045" lon="1.9199">
        <ele>172</ele>
        <time>2022-01-18T09:45:59Z</time>
      </trkpt>
      <trkpt lat="48.62032" lon="1.91971">
        <ele>172</ele>
        <time>2022-01-18T09:46:11Z</time>
      </trkpt>
      <trkpt lat="48.62017" lon="1.91953">
        <ele>172.3</ele>
        <time>2022-01-18T09:46:24Z</time>
      </trkpt>
      <trkpt lat="48.62006" lon="1.91931">
        <ele>172.9</ele>
        <time>2022-01-18T09:46:37Z</time>
      </trkpt>
      <trkpt lat="48.61994" lon="1.91908">
        <ele>173</ele>
        <time>2022-01-18T09:46:50Z</time>
      </trkpt>
      <trkpt lat="48.61981" lon="1.91888">
        <ele>173</ele>
        <time>2022-01-18T09:47:02Z</time>
      </trkpt>
      <trkpt lat="48.61968" lon="1.91866">
        <ele>173</ele>
        <time>2022-01-18T09:47:17Z</time>
      </trkpt>
      <trkpt lat="48.61954" lon="1.91845">
        <ele>173</ele>
        <time>2022-01-18T09:47:29Z</time>
      </trkpt>
      <trkpt lat="48.61942" lon="1.91824">
        <ele>173</ele>
        <time>2022-01-18T09:47:42Z</time>
      </trkpt>
      <trkpt lat="48.61931" lon="1.91802">
        <ele>173</ele>
        <time>2022-01-18T09:47:55Z</time>
      </trkpt>
      <trkpt lat="48.61919" lon="1.91782">
        <ele>173</ele>
        <time>2022-01-18T09:48:08Z</time>
      </trkpt>
      <trkpt lat="48.61906" lon="1.91763">
        <ele>173</ele>
        <time>2022-01-18T09:48:22Z</time>
      </trkpt>
      <trkpt lat="48.61895" lon="1.91741">
        <ele>173</ele>
        <time>2022-01-18T09:48:36Z</time>
      </trkpt>
      <trkpt lat="48.61882" lon="1.9172">
        <ele>173</ele>
        <time>2022-01-18T09:48:49Z</time>
      </trkpt>
      <trkpt lat="48.61868" lon="1.91703">
        <ele>173</ele>
        <time>2022-01-18T09:49:03Z</time>
      </trkpt>
      <trkpt lat="48.61857" lon="1.9168">
        <ele>173</ele>
        <time>2022-01-18T09:49:16Z</time>
      </trkpt>
      <trkpt lat="48.61844" lon="1.91659">
        <ele>173</ele>
        <time>2022-01-18T09:49:30Z</time>
      </trkpt>
      <trkpt lat="48.61831" lon="1.91639">
        <ele>173</ele>
        <time>2022-01-18T09:49:45Z</time>
      </trkpt>
      <trkpt lat="48.6182" lon="1.91618">
        <ele>173</ele>
        <time>2022-01-18T09:49:58Z</time>
      </trkpt>
      <trkpt lat="48.61807" lon="1.91595">
        <ele>173</ele>
        <time>2022-01-18T09:50:12Z</time>
      </trkpt>
      <trkpt lat="48.61794" lon="1.91575">
        <ele>173.3</ele>
        <time>2022-01-18T09:50:26Z</time>
      </trkpt>
      <trkpt lat="48.61782" lon="1.91554">
        <ele>173</ele>
        <time>2022-01-18T09:50:39Z</time>
      </trkpt>
      <trkpt lat="48.6177" lon="1.91532">
        <ele>173</ele>
        <time>2022-01-18T09:50:54Z</time>
      </trkpt>
      <trkpt lat="48.6176" lon="1.91508">
        <ele>172.3</ele>
        <time>2022-01-18T09:51:14Z</time>
      </trkpt>
      <trkpt lat="48.61746" lon="1.91492">
        <ele>171.5</ele>
        <time>2022-01-18T09:51:36Z</time>
      </trkpt>
      <trkpt lat="48.61734" lon="1.91471">
        <ele>170.3</ele>
        <time>2022-01-18T09:51:49Z</time>
      </trkpt>
      <trkpt lat="48.61716" lon="1.91463">
        <ele>169.2</ele>
        <time>2022-01-18T09:52:04Z</time>
      </trkpt>
      <trkpt lat="48.61698" lon="1.91463">
        <ele>168.8</ele>
        <time>2022-01-18T09:52:20Z</time>
      </trkpt>
      <trkpt lat="48.6168" lon="1.91459">
        <ele>167.5</ele>
        <time>2022-01-18T09:52:37Z</time>
      </trkpt>
      <trkpt lat="48.61662" lon="1.91457">
        <ele>166.3</ele>
        <time>2022-01-18T09:52:55Z</time>
      </trkpt>
      <trkpt lat="48.61644" lon="1.91455">
        <ele>165.8</ele>
        <time>2022-01-18T09:53:12Z</time>
      </trkpt>
      <trkpt lat="48.61625" lon="1.91453">
        <ele>167.2</ele>
        <time>2022-01-18T09:53:28Z</time>
      </trkpt>
      <trkpt lat="48.61606" lon="1.91451">
        <ele>168.8</ele>
        <time>2022-01-18T09:53:45Z</time>
      </trkpt>
      <trkpt lat="48.61587" lon="1.91451">
        <ele>170</ele>
        <time>2022-01-18T09:54:02Z</time>
      </trkpt>
      <trkpt lat="48.61568" lon="1.9145">
        <ele>168.5</ele>
        <time>2022-01-18T09:54:19Z</time>
      </trkpt>
      <trkpt lat="48.6155" lon="1.91445">
        <ele>166.1</ele>
        <time>2022-01-18T09:54:35Z</time>
      </trkpt>
      <trkpt lat="48.61554" lon="1.91473">
        <ele>167.6</ele>
        <time>2022-01-18T09:54:49Z</time>
      </trkpt>
      <trkpt lat="48.61555" lon="1.91502">
        <ele>167.9</ele>
        <time>2022-01-18T09:55:03Z</time>
      </trkpt>
      <trkpt lat="48.6156" lon="1.91528">
        <ele>168.5</ele>
        <time>2022-01-18T09:55:16Z</time>
      </trkpt>
      <trkpt lat="48.61564" lon="1.91557">
        <ele>168.9</ele>
        <time>2022-01-18T09:55:31Z</time>
      </trkpt>
      <trkpt lat="48.61559" lon="1.91583">
        <ele>168.4</ele>
        <time>2022-01-18T09:55:43Z</time>
      </trkpt>
      <trkpt lat="48.61551" lon="1.91608">
        <ele>166.7</ele>
        <time>2022-01-18T09:55:58Z</time>
      </trkpt>
      <trkpt lat="48.61533" lon="1.91615">
        <ele>162.6</ele>
        <time>2022-01-18T09:56:42Z</time>
      </trkpt>
      <trkpt lat="48.61515" lon="1.91613">
        <ele>157.5</ele>
        <time>2022-01-18T09:57:08Z</time>
      </trkpt>
      <trkpt lat="48.61497" lon="1.9161">
        <ele>152.4</ele>
        <time>2022-01-18T09:57:29Z</time>
      </trkpt>
      <trkpt lat="48.61479" lon="1.9161">
        <ele>149.1</ele>
        <time>2022-01-18T09:57:48Z</time>
      </trkpt>
      <trkpt lat="48.61461" lon="1.91613">
        <ele>146.5</ele>
        <time>2022-01-18T09:59:08Z</time>
      </trkpt>
      <trkpt lat="48.61443" lon="1.91604">
        <ele>143.6</ele>
        <time>2022-01-18T09:59:27Z</time>
      </trkpt>
      <trkpt lat="48.61426" lon="1.91593">
        <ele>141.3</ele>
        <time>2022-01-18T09:59:44Z</time>
      </trkpt>
      <trkpt lat="48.61408" lon="1.91592">
        <ele>139.3</ele>
        <time>2022-01-18T10:00:02Z</time>
      </trkpt>
      <trkpt lat="48.61402" lon="1.91618">
        <ele>139.6</ele>
        <time>2022-01-18T10:00:17Z</time>
      </trkpt>
      <trkpt lat="48.61389" lon="1.91638">
        <ele>139</ele>
        <time>2022-01-18T10:00:31Z</time>
      </trkpt>
      <trkpt lat="48.61373" lon="1.91649">
        <ele>139.7</ele>
        <time>2022-01-18T10:00:51Z</time>
      </trkpt>
      <trkpt lat="48.61357" lon="1.91665">
        <ele>141</ele>
        <time>2022-01-18T10:01:02Z</time>
      </trkpt>
      <trkpt lat="48.61344" lon="1.91687">
        <ele>143.3</ele>
        <time>2022-01-18T10:01:20Z</time>
      </trkpt>
      <trkpt lat="48.61339" lon="1.91713">
        <ele>145.8</ele>
        <time>2022-01-18T10:01:39Z</time>
      </trkpt>
      <trkpt lat="48.61329" lon="1.91736">
        <ele>148</ele>
        <time>2022-01-18T10:01:53Z</time>
      </trkpt>
      <trkpt lat="48.61318" lon="1.9176">
        <ele>149.5</ele>
        <time>2022-01-18T10:02:07Z</time>
      </trkpt>
      <trkpt lat="48.61315" lon="1.91789">
        <ele>151.2</ele>
        <time>2022-01-18T10:02:22Z</time>
      </trkpt>
      <trkpt lat="48.61305" lon="1.91812">
        <ele>152.1</ele>
        <time>2022-01-18T10:02:35Z</time>
      </trkpt>
      <trkpt lat="48.61299" lon="1.91839">
        <ele>152.5</ele>
        <time>2022-01-18T10:02:48Z</time>
      </trkpt>
      <trkpt lat="48.61294" lon="1.91866">
        <ele>153.8</ele>
        <time>2022-01-18T10:03:00Z</time>
      </trkpt>
      <trkpt lat="48.61284" lon="1.91889">
        <ele>154.1</ele>
        <time>2022-01-18T10:03:13Z</time>
      </trkpt>
      <trkpt lat="48.61275" lon="1.91913">
        <ele>155</ele>
        <time>2022-01-18T10:03:27Z</time>
      </trkpt>
      <trkpt lat="48.61264" lon="1.91937">
        <ele>155.3</ele>
        <time>2022-01-18T10:03:49Z</time>
      </trkpt>
      <trkpt lat="48.61252" lon="1.91958">
        <ele>154.9</ele>
        <time>2022-01-18T10:04:03Z</time>
      </trkpt>
      <trkpt lat="48.61238" lon="1.91977">
        <ele>152.9</ele>
        <time>2022-01-18T10:04:16Z</time>
      </trkpt>
      <trkpt lat="48.61224" lon="1.91997">
        <ele>151.2</ele>
        <time>2022-01-18T10:04:29Z</time>
      </trkpt>
      <trkpt lat="48.61216" lon="1.92023">
        <ele>149.4</ele>
        <time>2022-01-18T10:04:43Z</time>
      </trkpt>
      <trkpt lat="48.61199" lon="1.92038">
        <ele>146.8</ele>
        <time>2022-01-18T10:04:58Z</time>
      </trkpt>
      <trkpt lat="48.61181" lon="1.92036">
        <ele>145.1</ele>
        <time>2022-01-18T10:05:12Z</time>
      </trkpt>
      <trkpt lat="48.61163" lon="1.92032">
        <ele>143.6</ele>
        <time>2022-01-18T10:05:27Z</time>
      </trkpt>
      <trkpt lat="48.61145" lon="1.92031">
        <ele>142.3</ele>
        <time>2022-01-18T10:05:40Z</time>
      </trkpt>
      <trkpt lat="48.61126" lon="1.92024">
        <ele>141</ele>
        <time>2022-01-18T10:05:53Z</time>
      </trkpt>
      <trkpt lat="48.61109" lon="1.92017">
        <ele>139.9</ele>
        <time>2022-01-18T10:06:06Z</time>
      </trkpt>
      <trkpt lat="48.61092" lon="1.92003">
        <ele>139.3</ele>
        <time>2022-01-18T10:06:20Z</time>
      </trkpt>
      <trkpt lat="48.61075" lon="1.9199">
        <ele>138.5</ele>
        <time>2022-01-18T10:06:36Z</time>
      </trkpt>
      <trkpt lat="48.61057" lon="1.91981">
        <ele>138</ele>
        <time>2022-01-18T10:06:52Z</time>
      </trkpt>
      <trkpt lat="48.6104" lon="1.91969">
        <ele>136.8</ele>
        <time>2022-01-18T10:07:08Z</time>
      </trkpt>
      <trkpt lat="48.61024" lon="1.91955">
        <ele>135.8</ele>
        <time>2022-01-18T10:07:23Z</time>
      </trkpt>
      <trkpt lat="48.61008" lon="1.91942">
        <ele>135.2</ele>
        <time>2022-01-18T10:07:38Z</time>
      </trkpt>
      <trkpt lat="48.60992" lon="1.91928">
        <ele>134</ele>
        <time>2022-01-18T10:07:52Z</time>
      </trkpt>
      <trkpt lat="48.60974" lon="1.91917">
        <ele>133.1</ele>
        <time>2022-01-18T10:08:06Z</time>
      </trkpt>
      <trkpt lat="48.60959" lon="1.91901">
        <ele>132.5</ele>
        <time>2022-01-18T10:08:22Z</time>
      </trkpt>
      <trkpt lat="48.60942" lon="1.91888">
        <ele>131.9</ele>
        <time>2022-01-18T10:08:37Z</time>
      </trkpt>
      <trkpt lat="48.60927" lon="1.91873">
        <ele>130.8</ele>
        <time>2022-01-18T10:09:07Z</time>
      </trkpt>
      <trkpt lat="48.60915" lon="1.91851">
        <ele>129.6</ele>
        <time>2022-01-18T10:09:24Z</time>
      </trkpt>
      <trkpt lat="48.60899" lon="1.91837">
        <ele>128.5</ele>
        <time>2022-01-18T10:09:41Z</time>
      </trkpt>
      <trkpt lat="48.60885" lon="1.91853">
        <ele>128.5</ele>
        <time>2022-01-18T10:10:07Z</time>
      </trkpt>
      <trkpt lat="48.60868" lon="1.91867">
        <ele>128.5</ele>
        <time>2022-01-18T10:10:23Z</time>
      </trkpt>
      <trkpt lat="48.60852" lon="1.9188">
        <ele>128.1</ele>
        <time>2022-01-18T10:10:38Z</time>
      </trkpt>
      <trkpt lat="48.60836" lon="1.91894">
        <ele>127.3</ele>
        <time>2022-01-18T10:10:54Z</time>
      </trkpt>
      <trkpt lat="48.6082" lon="1.91906">
        <ele>126.8</ele>
        <time>2022-01-18T10:11:08Z</time>
      </trkpt>
      <trkpt lat="48.60801" lon="1.91905">
        <ele>125.8</ele>
        <time>2022-01-18T10:11:26Z</time>
      </trkpt>
      <trkpt lat="48.60784" lon="1.91896">
        <ele>125.2</ele>
        <time>2022-01-18T10:11:38Z</time>
      </trkpt>
      <trkpt lat="48.60768" lon="1.91881">
        <ele>124.5</ele>
        <time>2022-01-18T10:11:52Z</time>
      </trkpt>
      <trkpt lat="48.60753" lon="1.91863">
        <ele>124</ele>
        <time>2022-01-18T10:12:07Z</time>
      </trkpt>
      <trkpt lat="48.60738" lon="1.91845">
        <ele>124</ele>
        <time>2022-01-18T10:12:20Z</time>
      </trkpt>
      <trkpt lat="48.60722" lon="1.91829">
        <ele>123.8</ele>
        <time>2022-01-18T10:12:35Z</time>
      </trkpt>
      <trkpt lat="48.60704" lon="1.91821">
        <ele>123.2</ele>
        <time>2022-01-18T10:12:50Z</time>
      </trkpt>
      <trkpt lat="48.60688" lon="1.9181">
        <ele>123</ele>
        <time>2022-01-18T10:13:05Z</time>
      </trkpt>
      <trkpt lat="48.60671" lon="1.918">
        <ele>123</ele>
        <time>2022-01-18T10:13:17Z</time>
      </trkpt>
      <trkpt lat="48.60653" lon="1.91804">
        <ele>123</ele>
        <time>2022-01-18T10:13:31Z</time>
      </trkpt>
      <trkpt lat="48.60639" lon="1.91786">
        <ele>123</ele>
        <time>2022-01-18T10:13:43Z</time>
      </trkpt>
      <trkpt lat="48.60626" lon="1.91767">
        <ele>123</ele>
        <time>2022-01-18T10:14:00Z</time>
      </trkpt>
      <trkpt lat="48.60641" lon="1.91751">
        <ele>123</ele>
        <time>2022-01-18T10:15:15Z</time>
      </trkpt>
      <trkpt lat="48.60658" lon="1.91763">
        <ele>123</ele>
        <time>2022-01-18T10:15:40Z</time>
      </trkpt>
      <trkpt lat="48.60676" lon="1.91773">
        <ele>123</ele>
        <time>2022-01-18T10:15:55Z</time>
      </trkpt>
      <trkpt lat="48.60694" lon="1.9178">
        <ele>123</ele>
        <time>2022-01-18T10:16:07Z</time>
      </trkpt>
      <trkpt lat="48.60712" lon="1.91776">
        <ele>123</ele>
        <time>2022-01-18T10:16:18Z</time>
      </trkpt>
      <trkpt lat="48.6073" lon="1.91766">
        <ele>123</ele>
        <time>2022-01-18T10:16:32Z</time>
      </trkpt>
      <trkpt lat="48.60747" lon="1.91754">
        <ele>123</ele>
        <time>2022-01-18T10:16:44Z</time>
      </trkpt>
      <trkpt lat="48.60761" lon="1.91738">
        <ele>123.2</ele>
        <time>2022-01-18T10:16:58Z</time>
      </trkpt>
      <trkpt lat="48.60775" lon="1.91718">
        <ele>123</ele>
        <time>2022-01-18T10:17:14Z</time>
      </trkpt>
      <trkpt lat="48.60788" lon="1.91697">
        <ele>123.4</ele>
        <time>2022-01-18T10:17:27Z</time>
      </trkpt>
      <trkpt lat="48.60804" lon="1.9168">
        <ele>123.5</ele>
        <time>2022-01-18T10:17:41Z</time>
      </trkpt>
      <trkpt lat="48.60817" lon="1.91661">
        <ele>123</ele>
        <time>2022-01-18T10:17:56Z</time>
      </trkpt>
      <trkpt lat="48.60826" lon="1.91637">
        <ele>123</ele>
        <time>2022-01-18T10:18:09Z</time>
      </trkpt>
      <trkpt lat="48.60837" lon="1.91615">
        <ele>123</ele>
        <time>2022-01-18T10:18:22Z</time>
      </trkpt>
      <trkpt lat="48.60846" lon="1.9159">
        <ele>123</ele>
        <time>2022-01-18T10:18:35Z</time>
      </trkpt>
      <trkpt lat="48.60859" lon="1.91569">
        <ele>123.5</ele>
        <time>2022-01-18T10:18:50Z</time>
      </trkpt>
      <trkpt lat="48.6087" lon="1.91547">
        <ele>124</ele>
        <time>2022-01-18T10:19:03Z</time>
      </trkpt>
      <trkpt lat="48.60882" lon="1.91526">
        <ele>124</ele>
        <time>2022-01-18T10:19:16Z</time>
      </trkpt>
      <trkpt lat="48.60897" lon="1.91509">
        <ele>124</ele>
        <time>2022-01-18T10:19:31Z</time>
      </trkpt>
      <trkpt lat="48.60914" lon="1.91498">
        <ele>124</ele>
        <time>2022-01-18T10:19:45Z</time>
      </trkpt>
      <trkpt lat="48.60927" lon="1.91477">
        <ele>124</ele>
        <time>2022-01-18T10:20:00Z</time>
      </trkpt>
      <trkpt lat="48.60931" lon="1.9145">
        <ele>124</ele>
        <time>2022-01-18T10:20:15Z</time>
      </trkpt>
      <trkpt lat="48.60927" lon="1.91422">
        <ele>124</ele>
        <time>2022-01-18T10:20:29Z</time>
      </trkpt>
      <trkpt lat="48.60923" lon="1.91394">
        <ele>124</ele>
        <time>2022-01-18T10:20:41Z</time>
      </trkpt>
      <trkpt lat="48.60922" lon="1.91366">
        <ele>124</ele>
        <time>2022-01-18T10:20:54Z</time>
      </trkpt>
      <trkpt lat="48.60926" lon="1.91339">
        <ele>124</ele>
        <time>2022-01-18T10:21:07Z</time>
      </trkpt>
      <trkpt lat="48.60927" lon="1.91311">
        <ele>124</ele>
        <time>2022-01-18T10:21:20Z</time>
      </trkpt>
      <trkpt lat="48.60935" lon="1.91285">
        <ele>124</ele>
        <time>2022-01-18T10:21:34Z</time>
      </trkpt>
      <trkpt lat="48.60935" lon="1.91257">
        <ele>124</ele>
        <time>2022-01-18T10:21:54Z</time>
      </trkpt>
      <trkpt lat="48.60953" lon="1.91248">
        <ele>124</ele>
        <time>2022-01-18T10:22:55Z</time>
      </trkpt>
      <trkpt lat="48.60969" lon="1.91235">
        <ele>124.5</ele>
        <time>2022-01-18T10:23:11Z</time>
      </trkpt>
      <trkpt lat="48.60986" lon="1.91222">
        <ele>125</ele>
        <time>2022-01-18T10:23:28Z</time>
      </trkpt>
      <trkpt lat="48.60996" lon="1.91199">
        <ele>124.9</ele>
        <time>2022-01-18T10:23:42Z</time>
      </trkpt>
      <trkpt lat="48.61001" lon="1.91173">
        <ele>125</ele>
        <time>2022-01-18T10:23:58Z</time>
      </trkpt>
    </trkseg>
  </trk>
</gpx>